sensor_id;sensor_type;location;lat;lon;timestamp;pressure;altitude;pressure_sealevel;temperature;humidity
11077;BME280;5591;42.626;23.380;2022-11-15T00:01:28;94772.41;;;5.85;100.00
11077;BME280;5591;42.626;23.380;2022-11-15T00:03:55;94766.56;;;5.73;100.00
11077;BME280;5591;42.626;23.380;2022-11-15T00:06:23;94763.13;;;5.73;100.00
11077;BME280;5591;42.626;23.380;2022-11-15T00:08:50;94767.97;;;5.68;100.00
11077;BME280;5591;42.626;23.380;2022-11-15T00:11:17;94772.97;;;5.52;100.00
11077;BME280;5591;42.626;23.380;2022-11-15T00:13:44;94763.34;;;5.62;100.00
11077;BME280;5591;42.626;23.380;2022-11-15T00:16:11;94769.19;;;5.73;100.00
11077;BME280;5591;42.626;23.380;2022-11-15T00:18:38;94757.09;;;5.82;100.00
11077;BME280;5591;42.626;23.380;2022-11-15T00:21:07;94758.91;;;5.99;100.00
11077;BME280;5591;42.626;23.380;2022-11-15T00:23:35;94756.00;;;6.02;100.00
11077;BME280;5591;42.626;23.380;2022-11-15T00:26:02;94689.78;;;5.60;100.00
11077;BME280;5591;42.626;23.380;2022-11-15T00:28:30;94759.38;;;5.85;100.00
11077;BME280;5591;42.626;23.380;2022-11-15T00:31:00;94758.69;;;5.92;100.00
11077;BME280;5591;42.626;23.380;2022-11-15T00:33:27;94754.56;;;5.90;100.00
11077;BME280;5591;42.626;23.380;2022-11-15T00:35:59;94740.38;;;5.84;100.00
11077;BME280;5591;42.626;23.380;2022-11-15T00:38:30;94751.97;;;5.90;100.00
11077;BME280;5591;42.626;23.380;2022-11-15T00:40:58;94726.69;;;5.73;100.00
11077;BME280;5591;42.626;23.380;2022-11-15T00:43:26;94737.84;;;5.92;100.00
11077;BME280;5591;42.626;23.380;2022-11-15T00:45:52;94734.84;;;5.87;100.00
11077;BME280;5591;42.626;23.380;2022-11-15T00:48:19;94660.75;;;5.37;100.00
11077;BME280;5591;42.626;23.380;2022-11-15T00:50:46;94752.72;;;5.73;100.00
11077;BME280;5591;42.626;23.380;2022-11-15T00:53:13;94732.72;;;5.73;100.00
11077;BME280;5591;42.626;23.380;2022-11-15T00:55:40;94737.84;;;5.65;100.00
11077;BME280;5591;42.626;23.380;2022-11-15T00:58:09;94733.25;;;5.59;100.00
11077;BME280;5591;42.626;23.380;2022-11-15T01:00:36;94736.09;;;5.56;100.00
11077;BME280;5591;42.626;23.380;2022-11-15T01:03:04;94733.91;;;5.34;100.00
11077;BME280;5591;42.626;23.380;2022-11-15T01:05:31;94733.75;;;5.36;100.00
11077;BME280;5591;42.626;23.380;2022-11-15T01:07:58;94724.84;;;5.38;100.00
11077;BME280;5591;42.626;23.380;2022-11-15T01:10:25;94728.66;;;5.44;100.00
11077;BME280;5591;42.626;23.380;2022-11-15T01:12:52;94719.22;;;5.43;100.00
11077;BME280;5591;42.626;23.380;2022-11-15T01:15:20;94724.50;;;5.51;100.00
11077;BME280;5591;42.626;23.380;2022-11-15T01:17:47;94727.09;;;5.51;100.00
11077;BME280;5591;42.626;23.380;2022-11-15T01:20:14;94720.66;;;5.55;100.00
11077;BME280;5591;42.626;23.380;2022-11-15T01:22:40;94729.47;;;5.44;100.00
11077;BME280;5591;42.626;23.380;2022-11-15T01:25:07;94729.66;;;5.33;100.00
11077;BME280;5591;42.626;23.380;2022-11-15T01:27:34;94725.75;;;5.20;100.00
11077;BME280;5591;42.626;23.380;2022-11-15T01:30:01;94709.78;;;5.15;100.00
11077;BME280;5591;42.626;23.380;2022-11-15T01:32:29;94719.56;;;5.30;100.00
11077;BME280;5591;42.626;23.380;2022-11-15T01:34:56;94724.09;;;5.28;100.00
11077;BME280;5591;42.626;23.380;2022-11-15T01:37:22;94727.69;;;5.18;100.00
11077;BME280;5591;42.626;23.380;2022-11-15T01:39:49;94728.88;;;5.23;100.00
11077;BME280;5591;42.626;23.380;2022-11-15T01:42:16;94722.81;;;5.32;100.00
11077;BME280;5591;42.626;23.380;2022-11-15T01:44:45;94713.09;;;5.34;100.00
11077;BME280;5591;42.626;23.380;2022-11-15T01:47:16;94722.81;;;5.32;100.00
11077;BME280;5591;42.626;23.380;2022-11-15T01:49:50;94725.28;;;5.34;100.00
11077;BME280;5591;42.626;23.380;2022-11-15T01:52:20;94729.84;;;5.22;100.00
11077;BME280;5591;42.626;23.380;2022-11-15T01:54:54;94665.81;;;4.85;100.00
11077;BME280;5591;42.626;23.380;2022-11-15T01:57:23;94716.56;;;5.25;100.00
11077;BME280;5591;42.626;23.380;2022-11-15T01:59:50;94719.69;;;5.29;100.00
11077;BME280;5591;42.626;23.380;2022-11-15T02:02:17;94716.19;;;5.20;100.00
11077;BME280;5591;42.626;23.380;2022-11-15T02:04:47;94721.94;;;5.14;100.00
11077;BME280;5591;42.626;23.380;2022-11-15T02:07:15;94718.13;;;5.09;100.00
11077;BME280;5591;42.626;23.380;2022-11-15T02:09:44;94716.06;;;5.12;100.00
11077;BME280;5591;42.626;23.380;2022-11-15T02:12:14;94722.53;;;5.08;100.00
11077;BME280;5591;42.626;23.380;2022-11-15T02:14:44;94724.47;;;5.06;100.00
11077;BME280;5591;42.626;23.380;2022-11-15T02:17:24;94716.25;;;5.01;100.00
11077;BME280;5591;42.626;23.380;2022-11-15T02:23:53;94720.91;;;5.07;100.00
11077;BME280;5591;42.626;23.380;2022-11-15T02:26:52;94711.78;;;4.94;100.00
11077;BME280;5591;42.626;23.380;2022-11-15T02:29:36;94704.94;;;4.93;100.00
11077;BME280;5591;42.626;23.380;2022-11-15T02:32:13;94711.53;;;4.87;100.00
11077;BME280;5591;42.626;23.380;2022-11-15T02:34:53;94702.53;;;4.82;100.00
11077;BME280;5591;42.626;23.380;2022-11-15T02:37:32;94708.50;;;4.92;100.00
11077;BME280;5591;42.626;23.380;2022-11-15T02:40:06;94714.94;;;4.88;100.00
11077;BME280;5591;42.626;23.380;2022-11-15T02:42:41;94703.72;;;4.87;100.00
11077;BME280;5591;42.626;23.380;2022-11-15T02:45:31;94703.06;;;4.85;100.00
11077;BME280;5591;42.626;23.380;2022-11-15T02:48:04;94707.72;;;4.82;100.00
11077;BME280;5591;42.626;23.380;2022-11-15T02:50:32;94707.00;;;4.89;100.00
11077;BME280;5591;42.626;23.380;2022-11-15T02:52:59;94630.97;;;4.42;100.00
11077;BME280;5591;42.626;23.380;2022-11-15T02:55:28;94719.47;;;4.86;100.00
11077;BME280;5591;42.626;23.380;2022-11-15T02:58:06;94699.91;;;4.82;100.00
11077;BME280;5591;42.626;23.380;2022-11-15T03:00:43;94716.16;;;4.93;100.00
11077;BME280;5591;42.626;23.380;2022-11-15T03:03:37;94703.31;;;4.92;100.00
11077;BME280;5591;42.626;23.380;2022-11-15T03:06:15;94710.81;;;4.95;100.00
11077;BME280;5591;42.626;23.380;2022-11-15T03:08:54;94711.91;;;4.92;100.00
11077;BME280;5591;42.626;23.380;2022-11-15T03:11:24;94620.06;;;4.38;100.00
11077;BME280;5591;42.626;23.380;2022-11-15T03:13:56;94706.25;;;5.06;100.00
11077;BME280;5591;42.626;23.380;2022-11-15T03:16:27;94707.91;;;5.07;100.00
11077;BME280;5591;42.626;23.380;2022-11-15T03:19:02;94715.06;;;5.23;100.00
11077;BME280;5591;42.626;23.380;2022-11-15T03:21:33;94700.91;;;5.35;100.00
11077;BME280;5591;42.626;23.380;2022-11-15T03:24:03;94713.25;;;5.33;100.00
11077;BME280;5591;42.626;23.380;2022-11-15T03:26:33;94707.69;;;5.45;100.00
11077;BME280;5591;42.626;23.380;2022-11-15T03:29:04;94700.59;;;5.38;100.00
11077;BME280;5591;42.626;23.380;2022-11-15T03:31:36;94666.34;;;5.15;100.00
11077;BME280;5591;42.626;23.380;2022-11-15T03:34:19;94703.31;;;5.46;100.00
11077;BME280;5591;42.626;23.380;2022-11-15T03:36:47;94703.22;;;5.38;100.00
11077;BME280;5591;42.626;23.380;2022-11-15T03:39:16;94693.25;;;5.51;100.00
11077;BME280;5591;42.626;23.380;2022-11-15T03:41:47;94694.19;;;5.59;100.00
11077;BME280;5591;42.626;23.380;2022-11-15T03:44:19;94691.19;;;5.54;100.00
11077;BME280;5591;42.626;23.380;2022-11-15T03:46:54;94687.25;;;5.50;100.00
11077;BME280;5591;42.626;23.380;2022-11-15T03:49:28;94688.22;;;5.49;100.00
11077;BME280;5591;42.626;23.380;2022-11-15T03:51:56;94702.25;;;5.39;100.00
11077;BME280;5591;42.626;23.380;2022-11-15T03:54:24;94679.34;;;5.42;100.00
11077;BME280;5591;42.626;23.380;2022-11-15T03:56:50;94692.34;;;5.25;100.00
11077;BME280;5591;42.626;23.380;2022-11-15T03:59:17;94673.47;;;5.23;100.00
11077;BME280;5591;42.626;23.380;2022-11-15T04:01:45;94679.09;;;5.18;100.00
11077;BME280;5591;42.626;23.380;2022-11-15T04:04:11;94675.84;;;5.07;100.00
11077;BME280;5591;42.626;23.380;2022-11-15T04:06:40;94674.13;;;4.98;100.00
11077;BME280;5591;42.626;23.380;2022-11-15T04:09:07;94675.25;;;4.86;100.00
11077;BME280;5591;42.626;23.380;2022-11-15T04:11:33;94675.19;;;4.69;100.00
11077;BME280;5591;42.626;23.380;2022-11-15T04:14:00;94631.00;;;4.32;100.00
11077;BME280;5591;42.626;23.380;2022-11-15T04:16:27;94677.75;;;4.32;100.00
11077;BME280;5591;42.626;23.380;2022-11-15T04:18:54;94668.91;;;4.16;100.00
11077;BME280;5591;42.626;23.380;2022-11-15T04:21:34;94666.59;;;4.13;100.00
11077;BME280;5591;42.626;23.380;2022-11-15T04:24:22;94663.59;;;4.17;100.00
11077;BME280;5591;42.626;23.380;2022-11-15T04:26:49;94712.66;;;3.73;100.00
11077;BME280;5591;42.626;23.380;2022-11-15T04:29:16;94662.50;;;4.01;100.00
11077;BME280;5591;42.626;23.380;2022-11-15T04:32:03;94661.28;;;4.05;100.00
11077;BME280;5591;42.626;23.380;2022-11-15T04:34:31;94662.22;;;4.04;100.00
11077;BME280;5591;42.626;23.380;2022-11-15T04:36:58;94651.72;;;3.96;100.00
11077;BME280;5591;42.626;23.380;2022-11-15T04:39:43;94648.69;;;4.19;100.00
11077;BME280;5591;42.626;23.380;2022-11-15T04:42:10;94659.34;;;4.07;100.00
11077;BME280;5591;42.626;23.380;2022-11-15T04:44:37;94654.00;;;4.18;100.00
11077;BME280;5591;42.626;23.380;2022-11-15T04:47:04;94647.56;;;4.31;100.00
11077;BME280;5591;42.626;23.380;2022-11-15T04:49:31;94655.59;;;4.47;100.00
11077;BME280;5591;42.626;23.380;2022-11-15T04:51:58;94644.47;;;4.55;100.00
11077;BME280;5591;42.626;23.380;2022-11-15T04:54:24;94661.94;;;4.62;100.00
11077;BME280;5591;42.626;23.380;2022-11-15T04:56:53;94655.94;;;4.62;100.00
11077;BME280;5591;42.626;23.380;2022-11-15T04:59:19;94655.78;;;4.63;100.00
11077;BME280;5591;42.626;23.380;2022-11-15T05:01:46;94655.13;;;4.52;100.00
11077;BME280;5591;42.626;23.380;2022-11-15T05:04:13;94660.09;;;4.45;100.00
11077;BME280;5591;42.626;23.380;2022-11-15T05:06:45;94662.66;;;4.55;100.00
11077;BME280;5591;42.626;23.380;2022-11-15T05:09:12;94659.41;;;4.53;100.00
11077;BME280;5591;42.626;23.380;2022-11-15T05:11:39;94664.94;;;4.67;100.00
11077;BME280;5591;42.626;23.380;2022-11-15T05:14:08;94654.94;;;4.72;100.00
11077;BME280;5591;42.626;23.380;2022-11-15T05:16:34;94660.94;;;4.82;100.00
11077;BME280;5591;42.626;23.380;2022-11-15T05:19:02;94632.22;;;4.74;100.00
11077;BME280;5591;42.626;23.380;2022-11-15T05:21:29;94655.91;;;4.98;100.00
11077;BME280;5591;42.626;23.380;2022-11-15T05:23:56;94651.25;;;5.01;100.00
11077;BME280;5591;42.626;23.380;2022-11-15T05:26:25;94667.19;;;5.16;100.00
11077;BME280;5591;42.626;23.380;2022-11-15T05:28:52;94665.78;;;5.21;100.00
11077;BME280;5591;42.626;23.380;2022-11-15T05:31:21;94667.56;;;5.21;100.00
11077;BME280;5591;42.626;23.380;2022-11-15T05:33:49;94668.19;;;5.05;100.00
11077;BME280;5591;42.626;23.380;2022-11-15T05:36:20;94666.41;;;5.06;100.00
11077;BME280;5591;42.626;23.380;2022-11-15T05:38:48;94657.47;;;4.91;100.00
11077;BME280;5591;42.626;23.380;2022-11-15T05:41:17;94661.03;;;4.90;100.00
11077;BME280;5591;42.626;23.380;2022-11-15T05:43:46;94670.72;;;4.97;100.00
11077;BME280;5591;42.626;23.380;2022-11-15T05:46:14;94660.28;;;5.24;100.00
11077;BME280;5591;42.626;23.380;2022-11-15T05:48:46;94662.13;;;5.14;100.00
11077;BME280;5591;42.626;23.380;2022-11-15T05:51:16;94656.13;;;5.14;100.00
11077;BME280;5591;42.626;23.380;2022-11-15T05:53:44;94665.50;;;5.24;100.00
11077;BME280;5591;42.626;23.380;2022-11-15T05:56:12;94660.09;;;5.35;100.00
11077;BME280;5591;42.626;23.380;2022-11-15T05:58:39;94657.81;;;5.50;100.00
11077;BME280;5591;42.626;23.380;2022-11-15T06:01:06;94655.09;;;5.42;100.00
11077;BME280;5591;42.626;23.380;2022-11-15T06:03:33;94652.03;;;5.56;100.00
11077;BME280;5591;42.626;23.380;2022-11-15T06:06:01;94656.69;;;5.70;100.00
11077;BME280;5591;42.626;23.380;2022-11-15T06:08:28;94654.19;;;5.78;100.00
11077;BME280;5591;42.626;23.380;2022-11-15T06:10:54;94657.78;;;5.94;100.00
11077;BME280;5591;42.626;23.380;2022-11-15T06:13:21;94667.88;;;6.15;100.00
11077;BME280;5591;42.626;23.380;2022-11-15T06:15:48;94668.16;;;5.77;100.00
11077;BME280;5591;42.626;23.380;2022-11-15T06:18:15;94669.13;;;5.76;100.00
11077;BME280;5591;42.626;23.380;2022-11-15T06:20:41;94672.72;;;6.10;100.00
11077;BME280;5591;42.626;23.380;2022-11-15T06:23:09;94671.59;;;5.95;100.00
11077;BME280;5591;42.626;23.380;2022-11-15T06:25:37;94677.81;;;6.37;100.00
11077;BME280;5591;42.626;23.380;2022-11-15T06:28:03;94678.50;;;6.39;100.00
11077;BME280;5591;42.626;23.380;2022-11-15T06:30:30;94675.63;;;5.89;100.00
11077;BME280;5591;42.626;23.380;2022-11-15T06:33:01;94665.91;;;6.17;100.00
11077;BME280;5591;42.626;23.380;2022-11-15T06:35:28;94675.16;;;6.11;100.00
11077;BME280;5591;42.626;23.380;2022-11-15T06:37:56;94664.63;;;5.95;100.00
11077;BME280;5591;42.626;23.380;2022-11-15T06:40:29;94666.25;;;6.39;100.00
11077;BME280;5591;42.626;23.380;2022-11-15T06:42:57;94662.63;;;6.58;100.00
11077;BME280;5591;42.626;23.380;2022-11-15T06:45:24;94668.69;;;6.92;100.00
11077;BME280;5591;42.626;23.380;2022-11-15T06:47:51;94659.09;;;6.92;100.00
11077;BME280;5591;42.626;23.380;2022-11-15T06:50:18;94670.53;;;7.40;100.00
11077;BME280;5591;42.626;23.380;2022-11-15T06:52:45;94668.66;;;7.58;100.00
11077;BME280;5591;42.626;23.380;2022-11-15T06:55:12;94667.63;;;7.51;100.00
11077;BME280;5591;42.626;23.380;2022-11-15T06:57:47;94669.44;;;7.59;100.00
11077;BME280;5591;42.626;23.380;2022-11-15T07:00:16;94673.56;;;7.69;100.00
11077;BME280;5591;42.626;23.380;2022-11-15T07:02:43;94676.69;;;7.73;100.00
11077;BME280;5591;42.626;23.380;2022-11-15T07:05:11;94627.31;;;7.46;100.00
11077;BME280;5591;42.626;23.380;2022-11-15T07:07:38;94664.44;;;7.81;100.00
11077;BME280;5591;42.626;23.380;2022-11-15T07:10:06;94661.03;;;7.89;100.00
11077;BME280;5591;42.626;23.380;2022-11-15T07:12:33;94659.38;;;7.72;100.00
11077;BME280;5591;42.626;23.380;2022-11-15T07:15:02;94664.44;;;7.81;100.00
11077;BME280;5591;42.626;23.380;2022-11-15T07:17:29;94683.72;;;7.80;100.00
11077;BME280;5591;42.626;23.380;2022-11-15T07:19:55;94646.34;;;7.96;100.00
11077;BME280;5591;42.626;23.380;2022-11-15T07:22:22;94660.28;;;8.20;100.00
11077;BME280;5591;42.626;23.380;2022-11-15T07:24:49;94653.56;;;8.42;100.00
11077;BME280;5591;42.626;23.380;2022-11-15T07:27:16;94654.53;;;8.41;100.00
11077;BME280;5591;42.626;23.380;2022-11-15T07:29:42;94657.97;;;8.41;100.00
11077;BME280;5591;42.626;23.380;2022-11-15T07:32:11;94653.06;;;8.54;100.00
11077;BME280;5591;42.626;23.380;2022-11-15T07:34:37;94659.63;;;8.42;100.00
11077;BME280;5591;42.626;23.380;2022-11-15T07:37:04;94654.88;;;8.38;100.00
11077;BME280;5591;42.626;23.380;2022-11-15T07:39:31;94654.34;;;8.74;100.00
11077;BME280;5591;42.626;23.380;2022-11-15T07:41:58;94658.03;;;8.88;100.00
11077;BME280;5591;42.626;23.380;2022-11-15T07:44:39;94669.00;;;8.91;100.00
11077;BME280;5591;42.626;23.380;2022-11-15T07:47:06;94650.81;;;9.06;100.00
11077;BME280;5591;42.626;23.380;2022-11-15T07:49:34;94657.22;;;8.95;100.00
11077;BME280;5591;42.626;23.380;2022-11-15T07:52:01;94652.34;;;8.84;100.00
11077;BME280;5591;42.626;23.380;2022-11-15T07:54:27;94654.13;;;9.00;100.00
11077;BME280;5591;42.626;23.380;2022-11-15T07:56:54;94651.56;;;8.60;100.00
11077;BME280;5591;42.626;23.380;2022-11-15T07:59:21;94655.66;;;8.62;100.00
11077;BME280;5591;42.626;23.380;2022-11-15T08:01:48;94657.41;;;8.78;100.00
11077;BME280;5591;42.626;23.380;2022-11-15T08:04:15;94656.19;;;9.12;100.00
11077;BME280;5591;42.626;23.380;2022-11-15T08:06:43;94649.41;;;9.64;100.00
11077;BME280;5591;42.626;23.380;2022-11-15T08:09:10;94659.81;;;9.42;100.00
11077;BME280;5591;42.626;23.380;2022-11-15T08:11:36;94655.38;;;9.12;100.00
11077;BME280;5591;42.626;23.380;2022-11-15T08:14:03;94649.47;;;9.10;100.00
11077;BME280;5591;42.626;23.380;2022-11-15T08:16:30;94649.59;;;8.70;100.00
11077;BME280;5591;42.626;23.380;2022-11-15T08:18:57;94642.44;;;9.10;100.00
11077;BME280;5591;42.626;23.380;2022-11-15T08:21:24;94652.13;;;9.48;100.00
11077;BME280;5591;42.626;23.380;2022-11-15T08:23:52;94640.91;;;9.62;100.00
11077;BME280;5591;42.626;23.380;2022-11-15T08:26:19;94648.88;;;9.69;100.00
11077;BME280;5591;42.626;23.380;2022-11-15T08:28:46;94645.94;;;10.02;100.00
11077;BME280;5591;42.626;23.380;2022-11-15T08:31:14;94655.84;;;9.84;100.00
11077;BME280;5591;42.626;23.380;2022-11-15T08:33:42;94593.69;;;9.70;100.00
11077;BME280;5591;42.626;23.380;2022-11-15T08:36:12;94648.97;;;9.53;100.00
11077;BME280;5591;42.626;23.380;2022-11-15T08:38:39;94642.59;;;9.47;100.00
11077;BME280;5591;42.626;23.380;2022-11-15T08:41:12;94646.78;;;9.34;100.00
11077;BME280;5591;42.626;23.380;2022-11-15T08:43:40;94640.50;;;9.73;100.00
11077;BME280;5591;42.626;23.380;2022-11-15T08:46:08;94644.03;;;9.27;100.00
11077;BME280;5591;42.626;23.380;2022-11-15T08:48:37;94640.97;;;9.46;100.00
11077;BME280;5591;42.626;23.380;2022-11-15T08:56:14;94624.53;;;10.50;100.00
11077;BME280;5591;42.626;23.380;2022-11-15T08:58:41;94617.88;;;10.25;100.00
11077;BME280;5591;42.626;23.380;2022-11-15T09:01:16;94622.16;;;10.26;100.00
11077;BME280;5591;42.626;23.380;2022-11-15T09:03:43;94624.06;;;9.57;100.00
11077;BME280;5591;42.626;23.380;2022-11-15T09:06:10;94614.13;;;9.97;100.00
11077;BME280;5591;42.626;23.380;2022-11-15T09:08:45;94618.69;;;10.25;100.00
11077;BME280;5591;42.626;23.380;2022-11-15T09:11:16;94604.13;;;10.60;100.00
11077;BME280;5591;42.626;23.380;2022-11-15T09:13:45;94598.66;;;10.10;100.00
11077;BME280;5591;42.626;23.380;2022-11-15T09:16:12;94535.59;;;10.26;100.00
11077;BME280;5591;42.626;23.380;2022-11-15T09:18:40;94546.19;;;10.32;100.00
11077;BME280;5591;42.626;23.380;2022-11-15T09:21:08;94589.09;;;10.54;100.00
11077;BME280;5591;42.626;23.380;2022-11-15T09:23:35;94597.97;;;10.82;100.00
11077;BME280;5591;42.626;23.380;2022-11-15T09:26:03;94607.03;;;10.28;100.00
11077;BME280;5591;42.626;23.380;2022-11-15T09:28:32;94595.44;;;10.22;100.00
11077;BME280;5591;42.626;23.380;2022-11-15T09:31:01;94592.16;;;9.53;100.00
11077;BME280;5591;42.626;23.380;2022-11-15T09:33:28;94591.63;;;10.10;100.00
11077;BME280;5591;42.626;23.380;2022-11-15T09:35:59;94487.31;;;9.98;100.00
11077;BME280;5591;42.626;23.380;2022-11-15T09:38:26;94577.28;;;10.35;100.00
11077;BME280;5591;42.626;23.380;2022-11-15T09:41:08;94598.97;;;10.15;100.00
11077;BME280;5591;42.626;23.380;2022-11-15T09:43:46;94576.13;;;10.38;100.00
11077;BME280;5591;42.626;23.380;2022-11-15T09:46:21;94565.56;;;10.75;100.00
11077;BME280;5591;42.626;23.380;2022-11-15T09:48:52;94555.19;;;10.67;100.00
11077;BME280;5591;42.626;23.380;2022-11-15T09:51:30;94594.28;;;11.20;100.00
11077;BME280;5591;42.626;23.380;2022-11-15T09:54:03;94518.63;;;11.30;100.00
11077;BME280;5591;42.626;23.380;2022-11-15T09:56:32;94521.63;;;11.48;100.00
11077;BME280;5591;42.626;23.380;2022-11-15T09:59:16;94557.78;;;11.46;100.00
11077;BME280;5591;42.626;23.380;2022-11-15T10:01:52;94550.53;;;11.48;100.00
11077;BME280;5591;42.626;23.380;2022-11-15T10:04:22;94454.22;;;11.40;100.00
11077;BME280;5591;42.626;23.380;2022-11-15T10:06:54;94540.28;;;12.64;100.00
11077;BME280;5591;42.626;23.380;2022-11-15T10:09:25;94541.66;;;12.60;100.00
11077;BME280;5591;42.626;23.380;2022-11-15T10:11:56;94435.78;;;12.03;100.00
11077;BME280;5591;42.626;23.380;2022-11-15T10:14:27;94452.38;;;11.76;100.00
11077;BME280;5591;42.626;23.380;2022-11-15T10:17:16;94522.59;;;12.58;100.00
11077;BME280;5591;42.626;23.380;2022-11-15T10:19:54;94527.81;;;12.79;100.00
11077;BME280;5591;42.626;23.380;2022-11-15T10:22:28;94525.78;;;12.47;100.00
11077;BME280;5591;42.626;23.380;2022-11-15T10:25:17;94509.53;;;12.16;100.00
11077;BME280;5591;42.626;23.380;2022-11-15T10:27:50;94516.22;;;12.12;100.00
11077;BME280;5591;42.626;23.380;2022-11-15T10:30:20;94507.97;;;12.22;100.00
11077;BME280;5591;42.626;23.380;2022-11-15T10:32:48;94517.81;;;11.50;100.00
11077;BME280;5591;42.626;23.380;2022-11-15T10:35:19;94514.78;;;11.89;100.00
11077;BME280;5591;42.626;23.380;2022-11-15T10:37:47;94501.91;;;11.73;100.00
11077;BME280;5591;42.626;23.380;2022-11-15T10:40:19;94486.66;;;11.47;100.00
11077;BME280;5591;42.626;23.380;2022-11-15T10:42:48;94487.22;;;11.07;100.00
11077;BME280;5591;42.626;23.380;2022-11-15T10:45:26;94482.91;;;11.35;100.00
11077;BME280;5591;42.626;23.380;2022-11-15T10:47:53;94471.75;;;11.96;100.00
11077;BME280;5591;42.626;23.380;2022-11-15T10:50:28;94473.59;;;12.23;100.00
11077;BME280;5591;42.626;23.380;2022-11-15T10:52:56;94466.47;;;12.91;100.00
11077;BME280;5591;42.626;23.380;2022-11-15T10:55:25;94474.84;;;12.95;100.00
11077;BME280;5591;42.626;23.380;2022-11-15T10:57:57;94469.53;;;12.88;100.00
11077;BME280;5591;42.626;23.380;2022-11-15T11:00:31;94465.13;;;14.07;100.00
11077;BME280;5591;42.626;23.380;2022-11-15T11:03:00;94455.16;;;15.18;96.79
11077;BME280;5591;42.626;23.380;2022-11-15T11:05:30;94450.09;;;13.88;100.00
11077;BME280;5591;42.626;23.380;2022-11-15T11:07:59;94432.22;;;14.10;100.00
11077;BME280;5591;42.626;23.380;2022-11-15T11:10:27;94436.56;;;15.68;94.82
11077;BME280;5591;42.626;23.380;2022-11-15T11:12:54;94436.09;;;16.09;85.95
11077;BME280;5591;42.626;23.380;2022-11-15T11:15:24;94420.38;;;16.38;82.70
11077;BME280;5591;42.626;23.380;2022-11-15T11:18:02;94329.38;;;16.26;77.53
11077;BME280;5591;42.626;23.380;2022-11-15T11:20:38;94402.66;;;17.69;69.24
11077;BME280;5591;42.626;23.380;2022-11-15T11:23:21;94418.91;;;18.14;63.42
11077;BME280;5591;42.626;23.380;2022-11-15T11:26:00;94413.41;;;18.73;58.95
11077;BME280;5591;42.626;23.380;2022-11-15T11:28:39;94405.13;;;19.09;57.83
11077;BME280;5591;42.626;23.380;2022-11-15T11:31:19;94159.59;;;17.39;55.84
11077;BME280;5591;42.626;23.380;2022-11-15T11:33:56;94405.22;;;18.40;57.03
11077;BME280;5591;42.626;23.380;2022-11-15T11:36:35;94392.63;;;19.21;56.13
11077;BME280;5591;42.626;23.380;2022-11-15T11:39:19;94374.34;;;19.13;55.57
11077;BME280;5591;42.626;23.380;2022-11-15T11:41:57;94376.31;;;18.55;54.55
11077;BME280;5591;42.626;23.380;2022-11-15T11:44:33;94386.25;;;18.71;58.82
11077;BME280;5591;42.626;23.380;2022-11-15T11:47:01;94369.81;;;19.13;56.14
11077;BME280;5591;42.626;23.380;2022-11-15T11:49:39;94366.13;;;19.26;54.60
11077;BME280;5591;42.626;23.380;2022-11-15T11:52:12;94359.34;;;19.96;51.49
11077;BME280;5591;42.626;23.380;2022-11-15T11:54:48;94360.84;;;19.03;55.17
11077;BME280;5591;42.626;23.380;2022-11-15T11:57:33;94280.75;;;18.25;55.29
11077;BME280;5591;42.626;23.380;2022-11-15T12:00:11;94353.72;;;19.76;52.88
11077;BME280;5591;42.626;23.380;2022-11-15T12:02:41;94354.84;;;19.35;53.95
11077;BME280;5591;42.626;23.380;2022-11-15T12:05:17;94359.22;;;18.51;56.07
11077;BME280;5591;42.626;23.380;2022-11-15T12:07:47;94346.63;;;19.81;52.88
11077;BME280;5591;42.626;23.380;2022-11-15T12:10:22;94345.75;;;18.80;54.87
11077;BME280;5591;42.626;23.380;2022-11-15T12:12:55;94313.38;;;19.11;54.46
11077;BME280;5591;42.626;23.380;2022-11-15T12:15:26;94334.09;;;19.37;52.97
11077;BME280;5591;42.626;23.380;2022-11-15T12:17:55;94244.19;;;18.83;53.52
11077;BME280;5591;42.626;23.380;2022-11-15T12:20:25;94328.69;;;19.93;51.78
11077;BME280;5591;42.626;23.380;2022-11-15T12:22:55;94327.94;;;19.48;52.61
11077;BME280;5591;42.626;23.380;2022-11-15T12:25:28;94316.34;;;18.36;59.90
11077;BME280;5591;42.626;23.380;2022-11-15T12:28:01;94322.91;;;18.56;62.06
11077;BME280;5591;42.626;23.380;2022-11-15T12:30:42;94281.47;;;19.72;53.62
11077;BME280;5591;42.626;23.380;2022-11-15T12:33:29;94308.59;;;20.02;51.98
11077;BME280;5591;42.626;23.380;2022-11-15T12:36:00;94297.63;;;19.66;52.99
11077;BME280;5591;42.626;23.380;2022-11-15T12:38:58;94284.38;;;19.71;53.81
11077;BME280;5591;42.626;23.380;2022-11-15T12:41:27;94279.53;;;20.38;51.33
11077;BME280;5591;42.626;23.380;2022-11-15T12:43:54;94300.91;;;20.98;49.59
11077;BME280;5591;42.626;23.380;2022-11-15T12:46:59;94290.72;;;20.03;52.19
11077;BME280;5591;42.626;23.380;2022-11-15T12:49:44;94293.34;;;20.52;51.75
11077;BME280;5591;42.626;23.380;2022-11-15T12:52:14;94297.34;;;20.33;53.24
11077;BME280;5591;42.626;23.380;2022-11-15T12:57:50;94289.22;;;21.83;46.42
11077;BME280;5591;42.626;23.380;2022-11-15T13:00:44;94285.66;;;21.46;46.61
11077;BME280;5591;42.626;23.380;2022-11-15T13:03:27;94274.81;;;20.83;48.76
11077;BME280;5591;42.626;23.380;2022-11-15T13:06:06;94281.31;;;20.71;49.61
11077;BME280;5591;42.626;23.380;2022-11-15T13:08:40;94200.94;;;19.49;50.87
11077;BME280;5591;42.626;23.380;2022-11-15T13:11:44;94272.75;;;18.48;54.45
11077;BME280;5591;42.626;23.380;2022-11-15T13:14:41;94273.31;;;20.12;51.98
11077;BME280;5591;42.626;23.380;2022-11-15T13:17:35;94270.13;;;20.74;49.50
11077;BME280;5591;42.626;23.380;2022-11-15T13:20:19;94243.22;;;20.54;49.22
11077;BME280;5591;42.626;23.380;2022-11-15T13:22:48;94251.75;;;21.20;47.87
11077;BME280;5591;42.626;23.380;2022-11-15T13:25:27;94261.66;;;21.51;47.17
11077;BME280;5591;42.626;23.380;2022-11-15T13:27:57;94256.50;;;21.71;46.59
11077;BME280;5591;42.626;23.380;2022-11-15T13:30:27;94251.69;;;21.15;47.28